createdAt,value
2022-09-28T00:03:04.105Z,67.07
2022-09-28T00:08:06.155Z,66.97
2022-09-28T00:13:08.242Z,67.03
2022-09-28T00:18:13.243Z,67.07
2022-09-28T00:23:16.315Z,67.00
2022-09-28T00:28:19.633Z,67.07
2022-09-28T00:33:23.267Z,67.11
2022-09-28T00:38:28.864Z,66.99
2022-09-28T00:43:30.860Z,66.97
2022-09-28T00:48:40.402Z,67.09
2022-09-28T00:53:44.495Z,67.00
2022-09-28T00:58:50.462Z,67.10
2022-09-28T01:03:53.724Z,67.06
2022-09-28T01:08:58.715Z,67.02
2022-09-28T01:14:01.541Z,67.14
2022-09-28T01:19:24.992Z,67.16
2022-09-28T01:24:46.402Z,67.26
2022-09-28T01:30:02.482Z,67.34
2022-09-28T01:35:11.442Z,67.24
2022-09-28T01:40:15.944Z,67.52
2022-09-28T01:45:38.528Z,67.61
2022-09-28T01:50:44.316Z,67.52
2022-09-28T01:55:55.506Z,67.56
2022-09-28T02:01:03.602Z,67.67
2022-09-28T02:06:41.283Z,67.67
2022-09-28T02:11:50.597Z,67.56
2022-09-28T02:16:54.644Z,67.56
2022-09-28T02:22:23.584Z,67.74
2022-09-28T02:28:04.424Z,67.83
2022-09-28T02:33:16.886Z,67.96
2022-09-28T02:38:19.582Z,68.03
2022-09-28T02:43:46.058Z,68.13
2022-09-28T02:49:26.047Z,68.29
2022-09-28T02:55:06.044Z,68.14
2022-09-28T03:00:17.585Z,68.18
2022-09-28T03:05:56.532Z,68.19
2022-09-28T03:11:34.156Z,68.36
2022-09-28T03:16:37.207Z,68.29
2022-09-28T03:21:39.644Z,68.33
2022-09-28T03:26:41.643Z,68.23
2022-09-28T03:31:45.002Z,68.27
2022-09-28T03:36:47.262Z,68.39
2022-09-28T03:41:49.118Z,68.23
2022-09-28T03:46:52.971Z,68.31
2022-09-28T03:51:55.003Z,68.46
2022-09-28T03:56:59.330Z,68.55
2022-09-28T04:02:01.358Z,68.61
2022-09-28T04:07:03.519Z,68.44
2022-09-28T04:12:06.458Z,68.38
2022-09-28T04:17:08.344Z,68.66
2022-09-28T04:22:10.457Z,68.75
2022-09-28T04:27:32.276Z,68.87
2022-09-28T04:32:35.909Z,68.77
2022-09-28T04:37:37.903Z,68.92
2022-09-28T04:42:39.752Z,68.97
2022-09-28T04:47:41.593Z,69.10
2022-09-28T04:52:56.343Z,69.14
2022-09-28T04:58:04.244Z,69.09
2022-09-28T05:03:06.882Z,69.14
2022-09-28T05:08:35.732Z,69.06
2022-09-28T05:13:43.567Z,69.08
2022-09-28T05:18:47.389Z,69.19
2022-09-28T05:23:49.377Z,69.05
2022-09-28T05:28:51.376Z,69.06
2022-09-28T05:33:53.771Z,69.13
2022-09-28T05:38:55.624Z,69.29
2022-09-28T05:43:58.271Z,69.24
2022-09-28T05:49:00.488Z,69.29
2022-09-28T05:54:05.919Z,69.32
2022-09-28T05:59:12.228Z,69.32
2022-09-28T06:04:16.262Z,69.22
2022-09-28T06:09:23.826Z,69.50
2022-09-28T06:14:53.504Z,69.49
2022-09-28T06:19:59.367Z,69.63
2022-09-28T06:25:08.966Z,69.70
2022-09-28T06:30:11.603Z,69.62
2022-09-28T06:35:15.531Z,69.64
2022-09-28T06:40:17.706Z,69.68
2022-09-28T06:45:25.987Z,69.94
2022-09-28T06:51:00.902Z,69.93
2022-09-28T06:56:16.772Z,69.99
2022-09-28T07:01:20.111Z,69.92
2022-09-28T07:06:47.817Z,70.10
2022-09-28T07:12:13.497Z,70.04
2022-09-28T07:17:30.036Z,69.94
2022-09-28T07:22:42.732Z,70.42
2022-09-28T07:27:55.627Z,70.18
2022-09-28T07:33:17.962Z,70.16
2022-09-28T07:38:34.435Z,70.29
2022-09-28T07:43:36.636Z,70.33
2022-09-28T07:48:41.094Z,70.40
2022-09-28T07:53:58.462Z,70.46
2022-09-28T07:59:19.006Z,70.38
2022-09-28T08:04:43.879Z,70.18
2022-09-28T08:09:46.814Z,70.35
2022-09-28T08:15:14.488Z,70.27
2022-09-28T08:20:57.604Z,70.24
2022-09-28T08:26:00.218Z,70.36
2022-09-28T08:31:02.172Z,70.37
2022-09-28T08:36:07.020Z,70.57
2022-09-28T08:41:39.373Z,70.60
2022-09-28T08:47:05.416Z,70.66
2022-09-28T08:52:26.092Z,70.60
2022-09-28T08:58:17.697Z,70.81
2022-09-28T09:03:34.255Z,70.75
2022-09-28T09:09:22.380Z,71.02
2022-09-28T09:14:43.184Z,71.15
2022-09-28T09:19:58.807Z,71.08
2022-09-28T09:25:21.609Z,71.25
2022-09-28T09:30:31.818Z,71.36
2022-09-28T09:36:15.037Z,71.79
2022-09-28T09:42:11.906Z,72.19
2022-09-28T09:47:53.844Z,72.29
2022-09-28T09:53:13.271Z,72.57
2022-09-28T09:58:26.091Z,72.73
2022-09-28T10:03:39.882Z,72.82
2022-09-28T10:08:58.860Z,72.96
2022-09-28T10:14:02.171Z,73.27
2022-09-28T10:19:14.351Z,73.70
2022-09-28T10:24:56.965Z,73.86
2022-09-28T10:30:08.617Z,74.08
2022-09-28T10:35:20.563Z,74.27
2022-09-28T10:40:30.493Z,74.33
2022-09-28T10:45:37.715Z,74.73
2022-09-28T10:50:41.259Z,74.77
2022-09-28T10:56:05.492Z,74.75
2022-09-28T11:01:16.816Z,74.42
2022-09-28T11:06:31.217Z,74.69
2022-09-28T11:11:41.833Z,74.86
2022-09-28T11:16:44.890Z,74.61
2022-09-28T11:21:47.579Z,74.55
2022-09-28T11:26:56.606Z,74.78
2022-09-28T11:32:06.382Z,74.67
2022-09-28T11:37:46.182Z,74.74
2022-09-28T11:43:09.512Z,74.58
2022-09-28T11:48:16.678Z,74.37
2022-09-28T11:53:38.979Z,74.32
2022-09-28T11:58:45.081Z,74.23
2022-09-28T12:04:05.749Z,74.30
2022-09-28T12:09:22.787Z,74.38
2022-09-28T12:14:42.486Z,74.10
2022-09-28T12:20:15.654Z,74.28
2022-09-28T12:25:22.655Z,74.29
2022-09-28T12:30:26.564Z,74.11
2022-09-28T12:35:44.123Z,74.19
2022-09-28T12:41:07.181Z,74.25
2022-09-28T12:46:12.885Z,74.25
2022-09-28T12:51:26.793Z,74.02
2022-09-28T12:56:40.787Z,74.08
2022-09-28T13:01:59.902Z,74.03
2022-09-28T13:07:28.690Z,73.96
2022-09-28T13:12:39.045Z,73.96
2022-09-28T13:17:56.263Z,74.05
2022-09-28T13:23:25.702Z,74.00
2022-09-28T13:28:29.771Z,73.97
2022-09-28T13:33:47.366Z,74.15
2022-09-28T13:38:49.965Z,74.01
2022-09-28T13:44:16.712Z,74.05
2022-09-28T13:49:36.157Z,73.96
2022-09-28T13:55:00.604Z,73.85
2022-09-28T14:00:11.957Z,73.78
2022-09-28T14:05:22.820Z,73.76
2022-09-28T14:10:52.161Z,73.74
2022-09-28T14:16:15.306Z,73.77
2022-09-28T14:21:29.237Z,73.65
2022-09-28T14:26:48.073Z,73.64
2022-09-28T14:31:50.122Z,73.51
2022-09-28T14:37:10.924Z,73.67
2022-09-28T14:42:17.564Z,73.60
2022-09-28T14:47:37.258Z,73.63
2022-09-28T14:52:43.646Z,73.65
2022-09-28T14:57:52.739Z,73.53
2022-09-28T15:03:00.100Z,73.70
2022-09-28T15:08:02.701Z,73.83
2022-09-28T15:13:17.135Z,73.77
2022-09-28T15:18:18.883Z,73.65
2022-09-28T15:23:26.797Z,73.62
2022-09-28T15:28:28.596Z,73.35
2022-09-28T15:33:51.491Z,73.27
2022-09-28T15:39:01.254Z,73.19
2022-09-28T15:44:29.411Z,73.18
2022-09-28T15:49:58.636Z,73.22
2022-09-28T15:55:02.575Z,73.05
2022-09-28T16:00:20.471Z,73.14
2022-09-28T16:05:52.583Z,73.09
2022-09-28T16:11:24.400Z,73.03
2022-09-28T16:16:51.868Z,73.10
2022-09-28T16:21:57.063Z,73.03
2022-09-28T16:27:03.457Z,73.14
2022-09-28T16:32:41.577Z,73.21
2022-09-28T16:37:43.608Z,73.12
2022-09-28T16:42:49.097Z,73.14
2022-09-28T16:47:52.501Z,73.14
2022-09-28T16:53:33.963Z,73.38
2022-09-28T16:58:38.527Z,73.45
2022-09-28T17:03:47.002Z,73.36
2022-09-28T17:08:48.937Z,73.49
2022-09-28T17:13:51.934Z,73.39
2022-09-28T17:18:53.957Z,73.50
2022-09-28T17:23:55.775Z,73.44
2022-09-28T17:28:59.444Z,73.67
2022-09-28T17:34:01.307Z,73.64
2022-09-28T17:39:03.764Z,73.68
2022-09-28T17:44:06.556Z,73.84
2022-09-28T17:49:11.791Z,73.78
2022-09-28T17:54:16.823Z,73.78
2022-09-28T17:59:19.274Z,73.74
2022-09-28T18:04:50.723Z,73.79
2022-09-28T18:09:43.802Z,73.88
2022-09-28T18:14:47.167Z,73.78
2022-09-28T18:19:49.222Z,73.85
2022-09-28T18:24:51.042Z,73.67
2022-09-28T18:29:52.910Z,73.70
2022-09-28T18:34:54.783Z,73.62
2022-09-28T18:39:56.877Z,73.69
2022-09-28T18:44:58.686Z,73.60
2022-09-28T18:50:00.842Z,73.72
2022-09-28T18:55:02.746Z,73.64
2022-09-28T19:00:06.226Z,73.47
2022-09-28T19:05:08.669Z,73.43
2022-09-28T19:10:10.753Z,73.34
2022-09-28T19:15:13.290Z,73.42
2022-09-28T19:20:15.809Z,73.27
2022-09-28T19:25:17.738Z,73.34
2022-09-28T19:30:19.659Z,73.33
2022-09-28T19:35:21.578Z,73.43
2022-09-28T19:40:23.401Z,73.23
2022-09-28T19:45:25.559Z,73.18
2022-09-28T19:50:27.354Z,73.08
2022-09-28T19:55:35.526Z,73.31
2022-09-28T20:00:37.356Z,73.17
2022-09-28T20:05:41.594Z,73.23
2022-09-28T20:10:52.523Z,73.17
2022-09-28T20:15:54.381Z,73.15
2022-09-28T20:21:07.159Z,73.02
2022-09-28T20:26:09.415Z,72.97
2022-09-28T20:31:15.807Z,73.02
2022-09-28T20:36:20.751Z,73.03
2022-09-28T20:41:24.066Z,73.00
2022-09-28T20:46:26.531Z,72.94
2022-09-28T20:51:28.465Z,72.95
2022-09-28T20:56:37.899Z,72.97
2022-09-28T21:01:40.783Z,72.85
2022-09-28T21:06:43.383Z,72.79
2022-09-28T21:11:45.187Z,72.74
2022-09-28T21:16:46.929Z,72.69
2022-09-28T21:21:48.851Z,72.57
2022-09-28T21:26:50.685Z,72.53
2022-09-28T21:31:52.577Z,72.57
2022-09-28T21:36:54.875Z,72.48
2022-09-28T21:41:56.783Z,72.49
2022-09-28T21:46:58.903Z,72.41
2022-09-28T21:52:02.092Z,72.23
2022-09-28T21:57:03.862Z,72.49
2022-09-28T22:02:06.634Z,72.57
2022-09-28T22:07:08.779Z,72.45
2022-09-28T22:12:10.731Z,72.39
2022-09-28T22:17:12.513Z,72.19
2022-09-28T22:22:14.482Z,72.04
2022-09-28T22:27:16.291Z,72.37
2022-09-28T22:32:18.071Z,72.19
2022-09-28T22:37:19.818Z,72.36
2022-09-28T22:42:21.907Z,72.47
2022-09-28T22:47:23.675Z,72.50
2022-09-28T22:52:25.491Z,72.50
2022-09-28T22:57:27.417Z,72.53
2022-09-28T23:02:29.211Z,72.66
2022-09-28T23:07:31.083Z,72.64
2022-09-28T23:12:35.740Z,72.86
2022-09-28T23:17:37.723Z,72.81
2022-09-28T23:22:39.509Z,72.85
2022-09-28T23:27:46.369Z,72.81
2022-09-28T23:32:48.197Z,72.72
2022-09-28T23:37:51.838Z,72.94
2022-09-28T23:42:53.670Z,72.82
2022-09-28T23:47:55.992Z,73.03
2022-09-28T23:52:57.841Z,73.08
2022-09-28T23:57:59.657Z,72.94
